sensor_id;sensor_type;location;lat;lon;timestamp;temperature;humidity
3542;DHT22;1785;47.388;8.538;2022-09-03T00:00:28;20.00;99.90
3542;DHT22;1785;47.388;8.538;2022-09-03T00:03:01;20.00;99.90
3542;DHT22;1785;47.388;8.538;2022-09-03T00:05:34;19.70;99.90
3542;DHT22;1785;47.388;8.538;2022-09-03T00:08:05;20.10;99.90
3542;DHT22;1785;47.388;8.538;2022-09-03T00:10:42;20.00;99.90
3542;DHT22;1785;47.388;8.538;2022-09-03T00:13:12;19.90;99.90
3542;DHT22;1785;47.388;8.538;2022-09-03T00:15:40;19.90;99.90
3542;DHT22;1785;47.388;8.538;2022-09-03T00:18:09;20.00;99.90
3542;DHT22;1785;47.388;8.538;2022-09-03T00:20:39;20.20;99.90
3542;DHT22;1785;47.388;8.538;2022-09-03T00:23:09;20.40;99.90
3542;DHT22;1785;47.388;8.538;2022-09-03T00:25:39;20.70;99.90
3542;DHT22;1785;47.388;8.538;2022-09-03T00:28:12;20.40;99.90
3542;DHT22;1785;47.388;8.538;2022-09-03T00:30:40;19.80;99.90
3542;DHT22;1785;47.388;8.538;2022-09-03T00:33:11;19.60;99.90
3542;DHT22;1785;47.388;8.538;2022-09-03T00:35:43;19.70;99.90
3542;DHT22;1785;47.388;8.538;2022-09-03T00:38:12;20.10;99.90
3542;DHT22;1785;47.388;8.538;2022-09-03T00:40:54;20.40;99.90
3542;DHT22;1785;47.388;8.538;2022-09-03T00:43:31;20.20;99.90
3542;DHT22;1785;47.388;8.538;2022-09-03T00:46:07;19.70;99.90
3542;DHT22;1785;47.388;8.538;2022-09-03T00:48:44;19.30;99.90
3542;DHT22;1785;47.388;8.538;2022-09-03T00:51:17;19.60;99.90
3542;DHT22;1785;47.388;8.538;2022-09-03T00:53:58;19.90;99.90
3542;DHT22;1785;47.388;8.538;2022-09-03T00:56:33;20.40;99.90
3542;DHT22;1785;47.388;8.538;2022-09-03T00:59:09;20.60;99.90
3542;DHT22;1785;47.388;8.538;2022-09-03T01:01:44;20.30;99.90
3542;DHT22;1785;47.388;8.538;2022-09-03T01:04:29;20.40;99.90
3542;DHT22;1785;47.388;8.538;2022-09-03T01:07:08;20.60;99.90
3542;DHT22;1785;47.388;8.538;2022-09-03T01:09:46;20.70;99.90
3542;DHT22;1785;47.388;8.538;2022-09-03T01:12:24;20.70;99.90
3542;DHT22;1785;47.388;8.538;2022-09-03T01:15:02;20.60;99.90
3542;DHT22;1785;47.388;8.538;2022-09-03T01:17:44;20.70;99.90
3542;DHT22;1785;47.388;8.538;2022-09-03T01:20:19;20.70;99.90
3542;DHT22;1785;47.388;8.538;2022-09-03T01:25:52;20.20;99.90
3542;DHT22;1785;47.388;8.538;2022-09-03T01:28:36;20.30;99.90
3542;DHT22;1785;47.388;8.538;2022-09-03T01:31:17;20.50;99.90
3542;DHT22;1785;47.388;8.538;2022-09-03T01:33:54;20.60;99.90
3542;DHT22;1785;47.388;8.538;2022-09-03T01:36:25;20.60;99.90
3542;DHT22;1785;47.388;8.538;2022-09-03T01:39:01;20.70;99.90
3542;DHT22;1785;47.388;8.538;2022-09-03T01:41:39;20.70;99.90
3542;DHT22;1785;47.388;8.538;2022-09-03T01:44:34;20.70;99.90
3542;DHT22;1785;47.388;8.538;2022-09-03T01:47:14;20.40;99.90
3542;DHT22;1785;47.388;8.538;2022-09-03T01:49:46;19.90;99.90
3542;DHT22;1785;47.388;8.538;2022-09-03T01:52:28;20.00;99.90
3542;DHT22;1785;47.388;8.538;2022-09-03T01:55:08;20.20;99.90
3542;DHT22;1785;47.388;8.538;2022-09-03T01:57:46;20.30;99.90
3542;DHT22;1785;47.388;8.538;2022-09-03T02:00:16;20.20;99.90
3542;DHT22;1785;47.388;8.538;2022-09-03T02:02:46;20.30;99.90
3542;DHT22;1785;47.388;8.538;2022-09-03T02:05:16;20.40;99.90
3542;DHT22;1785;47.388;8.538;2022-09-03T02:07:46;20.50;99.90
3542;DHT22;1785;47.388;8.538;2022-09-03T02:10:15;20.40;99.90
3542;DHT22;1785;47.388;8.538;2022-09-03T02:12:46;20.40;99.90
3542;DHT22;1785;47.388;8.538;2022-09-03T02:15:17;20.50;99.90
3542;DHT22;1785;47.388;8.538;2022-09-03T02:17:47;20.60;99.90
3542;DHT22;1785;47.388;8.538;2022-09-03T02:20:17;20.60;99.90
3542;DHT22;1785;47.388;8.538;2022-09-03T02:22:45;20.60;99.90
3542;DHT22;1785;47.388;8.538;2022-09-03T02:25:14;20.60;99.90
3542;DHT22;1785;47.388;8.538;2022-09-03T02:27:41;20.50;99.90
3542;DHT22;1785;47.388;8.538;2022-09-03T02:30:09;20.30;99.90
3542;DHT22;1785;47.388;8.538;2022-09-03T02:32:36;20.20;99.90
3542;DHT22;1785;47.388;8.538;2022-09-03T02:35:03;20.10;99.90
3542;DHT22;1785;47.388;8.538;2022-09-03T02:39:59;20.00;99.90
3542;DHT22;1785;47.388;8.538;2022-09-03T02:42:26;19.90;99.90
3542;DHT22;1785;47.388;8.538;2022-09-03T02:44:56;20.00;99.90
3542;DHT22;1785;47.388;8.538;2022-09-03T02:47:29;20.00;99.90
3542;DHT22;1785;47.388;8.538;2022-09-03T02:49:57;20.10;99.90
3542;DHT22;1785;47.388;8.538;2022-09-03T02:52:23;20.10;99.90
3542;DHT22;1785;47.388;8.538;2022-09-03T02:54:49;20.00;99.90
3542;DHT22;1785;47.388;8.538;2022-09-03T02:57:16;20.00;99.90
3542;DHT22;1785;47.388;8.538;2022-09-03T02:59:42;19.90;99.90
3542;DHT22;1785;47.388;8.538;2022-09-03T03:02:10;19.90;99.90
3542;DHT22;1785;47.388;8.538;2022-09-03T03:04:38;19.90;99.90
3542;DHT22;1785;47.388;8.538;2022-09-03T03:07:05;19.90;99.90
3542;DHT22;1785;47.388;8.538;2022-09-03T03:09:32;19.90;99.90
3542;DHT22;1785;47.388;8.538;2022-09-03T03:11:59;19.90;99.90
3542;DHT22;1785;47.388;8.538;2022-09-03T03:14:25;19.90;99.90
3542;DHT22;1785;47.388;8.538;2022-09-03T03:16:52;19.90;99.90
3542;DHT22;1785;47.388;8.538;2022-09-03T03:19:18;19.70;99.90
3542;DHT22;1785;47.388;8.538;2022-09-03T03:21:45;19.80;99.90
3542;DHT22;1785;47.388;8.538;2022-09-03T03:24:13;20.10;99.90
3542;DHT22;1785;47.388;8.538;2022-09-03T03:26:40;20.20;99.90
3542;DHT22;1785;47.388;8.538;2022-09-03T03:29:06;20.40;99.90
3542;DHT22;1785;47.388;8.538;2022-09-03T03:31:33;20.30;99.90
3542;DHT22;1785;47.388;8.538;2022-09-03T03:34:01;20.30;99.90
3542;DHT22;1785;47.388;8.538;2022-09-03T03:36:30;19.90;99.90
3542;DHT22;1785;47.388;8.538;2022-09-03T03:38:58;19.60;99.90
3542;DHT22;1785;47.388;8.538;2022-09-03T03:41:27;19.60;99.90
3542;DHT22;1785;47.388;8.538;2022-09-03T03:43:57;19.90;99.90
3542;DHT22;1785;47.388;8.538;2022-09-03T03:46:27;20.00;99.90
3542;DHT22;1785;47.388;8.538;2022-09-03T03:48:54;20.20;99.90
3542;DHT22;1785;47.388;8.538;2022-09-03T03:51:20;20.00;99.90
3542;DHT22;1785;47.388;8.538;2022-09-03T03:53:47;19.90;99.90
3542;DHT22;1785;47.388;8.538;2022-09-03T03:56:14;20.10;99.90
3542;DHT22;1785;47.388;8.538;2022-09-03T03:58:42;20.30;99.90
3542;DHT22;1785;47.388;8.538;2022-09-03T04:01:10;20.30;99.90
3542;DHT22;1785;47.388;8.538;2022-09-03T04:03:37;20.30;99.90
3542;DHT22;1785;47.388;8.538;2022-09-03T04:06:05;20.40;99.90
3542;DHT22;1785;47.388;8.538;2022-09-03T04:08:34;20.40;99.90
3542;DHT22;1785;47.388;8.538;2022-09-03T04:11:03;20.40;99.90
3542;DHT22;1785;47.388;8.538;2022-09-03T04:13:30;20.40;99.90
3542;DHT22;1785;47.388;8.538;2022-09-03T04:16:01;20.40;99.90
3542;DHT22;1785;47.388;8.538;2022-09-03T04:18:28;20.40;99.90
3542;DHT22;1785;47.388;8.538;2022-09-03T04:20:58;20.50;99.90
3542;DHT22;1785;47.388;8.538;2022-09-03T04:23:25;20.50;99.90
3542;DHT22;1785;47.388;8.538;2022-09-03T04:25:53;20.50;99.90
3542;DHT22;1785;47.388;8.538;2022-09-03T04:28:19;20.30;99.90
3542;DHT22;1785;47.388;8.538;2022-09-03T04:30:47;20.40;99.90
3542;DHT22;1785;47.388;8.538;2022-09-03T04:33:14;20.60;99.90
3542;DHT22;1785;47.388;8.538;2022-09-03T04:35:41;20.40;99.90
3542;DHT22;1785;47.388;8.538;2022-09-03T04:38:08;20.10;99.90
3542;DHT22;1785;47.388;8.538;2022-09-03T04:40:34;20.00;99.90
3542;DHT22;1785;47.388;8.538;2022-09-03T04:43:01;19.50;99.90
3542;DHT22;1785;47.388;8.538;2022-09-03T04:45:27;19.00;99.90
3542;DHT22;1785;47.388;8.538;2022-09-03T04:47:58;18.90;99.90
3542;DHT22;1785;47.388;8.538;2022-09-03T04:50:25;19.00;99.90
3542;DHT22;1785;47.388;8.538;2022-09-03T04:52:53;19.00;99.90
3542;DHT22;1785;47.388;8.538;2022-09-03T04:55:21;19.00;99.90
3542;DHT22;1785;47.388;8.538;2022-09-03T04:57:48;19.10;99.90
3542;DHT22;1785;47.388;8.538;2022-09-03T05:00:14;18.90;99.90
3542;DHT22;1785;47.388;8.538;2022-09-03T05:02:43;19.00;99.90
3542;DHT22;1785;47.388;8.538;2022-09-03T05:05:11;19.20;99.90
3542;DHT22;1785;47.388;8.538;2022-09-03T05:07:38;19.10;99.90
3542;DHT22;1785;47.388;8.538;2022-09-03T05:10:06;19.20;99.90
3542;DHT22;1785;47.388;8.538;2022-09-03T05:12:34;19.40;99.90
3542;DHT22;1785;47.388;8.538;2022-09-03T05:15:01;19.60;99.90
3542;DHT22;1785;47.388;8.538;2022-09-03T05:17:29;19.70;99.90
3542;DHT22;1785;47.388;8.538;2022-09-03T05:19:56;19.80;99.90
3542;DHT22;1785;47.388;8.538;2022-09-03T05:22:22;20.20;99.90
3542;DHT22;1785;47.388;8.538;2022-09-03T05:24:50;20.60;99.90
3542;DHT22;1785;47.388;8.538;2022-09-03T05:27:17;20.90;99.90
3542;DHT22;1785;47.388;8.538;2022-09-03T05:29:44;20.30;99.90
3542;DHT22;1785;47.388;8.538;2022-09-03T05:32:10;20.50;99.90
3542;DHT22;1785;47.388;8.538;2022-09-03T05:34:38;20.60;99.90
3542;DHT22;1785;47.388;8.538;2022-09-03T05:37:05;20.90;99.90
3542;DHT22;1785;47.388;8.538;2022-09-03T05:39:31;21.00;99.90
3542;DHT22;1785;47.388;8.538;2022-09-03T05:41:58;21.30;99.90
3542;DHT22;1785;47.388;8.538;2022-09-03T05:44:25;21.40;99.90
3542;DHT22;1785;47.388;8.538;2022-09-03T05:46:51;21.50;99.90
3542;DHT22;1785;47.388;8.538;2022-09-03T05:49:18;21.60;99.90
3542;DHT22;1785;47.388;8.538;2022-09-03T05:51:45;21.40;99.90
3542;DHT22;1785;47.388;8.538;2022-09-03T05:54:12;21.40;99.90
3542;DHT22;1785;47.388;8.538;2022-09-03T05:56:39;21.20;99.90
3542;DHT22;1785;47.388;8.538;2022-09-03T05:59:09;20.80;99.90
3542;DHT22;1785;47.388;8.538;2022-09-03T06:01:37;21.00;99.90
3542;DHT22;1785;47.388;8.538;2022-09-03T06:04:06;21.20;99.90
3542;DHT22;1785;47.388;8.538;2022-09-03T06:06:35;21.30;99.90
3542;DHT22;1785;47.388;8.538;2022-09-03T06:09:04;21.40;99.90
3542;DHT22;1785;47.388;8.538;2022-09-03T06:11:33;21.50;99.90
3542;DHT22;1785;47.388;8.538;2022-09-03T06:14:01;21.70;99.90
3542;DHT22;1785;47.388;8.538;2022-09-03T06:16:31;21.70;99.90
3542;DHT22;1785;47.388;8.538;2022-09-03T06:18:58;21.60;99.90
3542;DHT22;1785;47.388;8.538;2022-09-03T06:21:25;21.20;99.90
3542;DHT22;1785;47.388;8.538;2022-09-03T06:23:53;20.60;99.90
3542;DHT22;1785;47.388;8.538;2022-09-03T06:26:22;20.30;99.90
3542;DHT22;1785;47.388;8.538;2022-09-03T06:28:49;20.50;99.90
3542;DHT22;1785;47.388;8.538;2022-09-03T06:31:17;21.00;99.90
3542;DHT22;1785;47.388;8.538;2022-09-03T06:33:45;21.30;99.90
3542;DHT22;1785;47.388;8.538;2022-09-03T06:36:14;21.50;99.90
3542;DHT22;1785;47.388;8.538;2022-09-03T06:38:41;21.50;99.90
3542;DHT22;1785;47.388;8.538;2022-09-03T06:41:09;21.30;99.90
3542;DHT22;1785;47.388;8.538;2022-09-03T06:43:38;21.40;99.90
3542;DHT22;1785;47.388;8.538;2022-09-03T06:46:06;21.50;99.90
3542;DHT22;1785;47.388;8.538;2022-09-03T06:48:34;21.50;99.90
3542;DHT22;1785;47.388;8.538;2022-09-03T06:51:02;21.50;99.90
3542;DHT22;1785;47.388;8.538;2022-09-03T06:53:32;21.30;99.90
3542;DHT22;1785;47.388;8.538;2022-09-03T06:56:01;21.00;99.90
3542;DHT22;1785;47.388;8.538;2022-09-03T06:58:28;20.60;99.90
3542;DHT22;1785;47.388;8.538;2022-09-03T07:01:01;20.20;99.90
3542;DHT22;1785;47.388;8.538;2022-09-03T07:03:28;20.00;99.90
3542;DHT22;1785;47.388;8.538;2022-09-03T07:05:59;19.90;99.90
3542;DHT22;1785;47.388;8.538;2022-09-03T07:08:27;20.00;99.90
3542;DHT22;1785;47.388;8.538;2022-09-03T07:10:57;20.10;99.90
3542;DHT22;1785;47.388;8.538;2022-09-03T07:13:24;20.40;99.90
3542;DHT22;1785;47.388;8.538;2022-09-03T07:15:58;20.50;99.90
3542;DHT22;1785;47.388;8.538;2022-09-03T07:18:25;20.70;99.90
3542;DHT22;1785;47.388;8.538;2022-09-03T07:20:57;20.60;99.90
3542;DHT22;1785;47.388;8.538;2022-09-03T07:23:25;20.50;99.90
3542;DHT22;1785;47.388;8.538;2022-09-03T07:25:54;20.40;99.90
3542;DHT22;1785;47.388;8.538;2022-09-03T07:28:21;20.40;99.90
3542;DHT22;1785;47.388;8.538;2022-09-03T07:30:49;20.40;99.90
3542;DHT22;1785;47.388;8.538;2022-09-03T07:33:16;20.50;99.90
3542;DHT22;1785;47.388;8.538;2022-09-03T07:35:43;20.40;99.90
3542;DHT22;1785;47.388;8.538;2022-09-03T07:38:15;20.50;99.90
3542;DHT22;1785;47.388;8.538;2022-09-03T07:40:42;20.70;99.90
3542;DHT22;1785;47.388;8.538;2022-09-03T07:43:09;20.60;99.90
3542;DHT22;1785;47.388;8.538;2022-09-03T07:45:37;20.40;99.90
3542;DHT22;1785;47.388;8.538;2022-09-03T07:48:04;20.30;99.90
3542;DHT22;1785;47.388;8.538;2022-09-03T07:50:31;20.30;99.90
3542;DHT22;1785;47.388;8.538;2022-09-03T07:53:02;20.20;99.90
3542;DHT22;1785;47.388;8.538;2022-09-03T07:55:29;20.20;99.90
3542;DHT22;1785;47.388;8.538;2022-09-03T07:57:56;19.90;99.90
3542;DHT22;1785;47.388;8.538;2022-09-03T08:00:24;19.80;99.90
3542;DHT22;1785;47.388;8.538;2022-09-03T08:02:51;20.10;99.90
3542;DHT22;1785;47.388;8.538;2022-09-03T08:05:19;20.20;99.90
3542;DHT22;1785;47.388;8.538;2022-09-03T08:07:46;20.50;99.90
3542;DHT22;1785;47.388;8.538;2022-09-03T08:10:14;20.90;99.90
3542;DHT22;1785;47.388;8.538;2022-09-03T08:12:41;21.10;99.90
3542;DHT22;1785;47.388;8.538;2022-09-03T08:15:08;21.10;99.90
3542;DHT22;1785;47.388;8.538;2022-09-03T08:17:36;21.10;99.90
3542;DHT22;1785;47.388;8.538;2022-09-03T08:20:03;20.60;99.90
3542;DHT22;1785;47.388;8.538;2022-09-03T08:22:29;20.50;99.90
3542;DHT22;1785;47.388;8.538;2022-09-03T08:24:56;20.70;99.90
3542;DHT22;1785;47.388;8.538;2022-09-03T08:27:23;21.00;99.90
3542;DHT22;1785;47.388;8.538;2022-09-03T08:29:50;21.20;99.90
3542;DHT22;1785;47.388;8.538;2022-09-03T08:32:17;21.10;99.90
3542;DHT22;1785;47.388;8.538;2022-09-03T08:34:44;21.10;99.90
3542;DHT22;1785;47.388;8.538;2022-09-03T08:37:11;21.00;99.90
3542;DHT22;1785;47.388;8.538;2022-09-03T08:39:38;20.80;99.90
3542;DHT22;1785;47.388;8.538;2022-09-03T08:42:36;20.50;99.90
3542;DHT22;1785;47.388;8.538;2022-09-03T08:45:06;20.60;99.90
3542;DHT22;1785;47.388;8.538;2022-09-03T08:47:38;20.90;99.90
3542;DHT22;1785;47.388;8.538;2022-09-03T08:50:11;20.80;99.90
3542;DHT22;1785;47.388;8.538;2022-09-03T08:52:46;20.90;99.90
3542;DHT22;1785;47.388;8.538;2022-09-03T08:55:21;21.30;99.90
3542;DHT22;1785;47.388;8.538;2022-09-03T08:57:51;21.30;99.90
3542;DHT22;1785;47.388;8.538;2022-09-03T09:00:19;21.00;99.90
3542;DHT22;1785;47.388;8.538;2022-09-03T09:02:59;20.90;99.90
3542;DHT22;1785;47.388;8.538;2022-09-03T09:05:40;20.80;99.90
3542;DHT22;1785;47.388;8.538;2022-09-03T09:08:15;21.20;99.90
3542;DHT22;1785;47.388;8.538;2022-09-03T09:10:46;21.40;99.90
3542;DHT22;1785;47.388;8.538;2022-09-03T09:13:21;21.70;99.90
3542;DHT22;1785;47.388;8.538;2022-09-03T09:15:56;21.90;99.90
3542;DHT22;1785;47.388;8.538;2022-09-03T09:18:40;21.60;99.90
3542;DHT22;1785;47.388;8.538;2022-09-03T09:21:15;21.40;99.90
3542;DHT22;1785;47.388;8.538;2022-09-03T09:23:46;21.70;99.90
3542;DHT22;1785;47.388;8.538;2022-09-03T09:26:16;21.70;99.90
3542;DHT22;1785;47.388;8.538;2022-09-03T09:28:44;21.70;99.90
3542;DHT22;1785;47.388;8.538;2022-09-03T09:31:13;21.50;99.90
3542;DHT22;1785;47.388;8.538;2022-09-03T09:33:41;21.60;99.90
3542;DHT22;1785;47.388;8.538;2022-09-03T09:36:09;21.30;99.90
3542;DHT22;1785;47.388;8.538;2022-09-03T09:38:41;20.80;99.90
3542;DHT22;1785;47.388;8.538;2022-09-03T09:41:11;20.70;99.90
3542;DHT22;1785;47.388;8.538;2022-09-03T09:43:39;20.80;99.90
3542;DHT22;1785;47.388;8.538;2022-09-03T09:46:09;20.50;99.90
3542;DHT22;1785;47.388;8.538;2022-09-03T09:48:42;20.30;99.90
3542;DHT22;1785;47.388;8.538;2022-09-03T09:51:20;20.30;99.90
3542;DHT22;1785;47.388;8.538;2022-09-03T09:54:00;20.70;99.90
3542;DHT22;1785;47.388;8.538;2022-09-03T09:56:27;20.80;99.90
3542;DHT22;1785;47.388;8.538;2022-09-03T09:59:02;20.70;99.90
3542;DHT22;1785;47.388;8.538;2022-09-03T10:01:29;20.50;99.90
3542;DHT22;1785;47.388;8.538;2022-09-03T10:03:58;20.80;99.90
3542;DHT22;1785;47.388;8.538;2022-09-03T10:06:28;20.90;99.90
3542;DHT22;1785;47.388;8.538;2022-09-03T10:09:16;20.50;99.90
3542;DHT22;1785;47.388;8.538;2022-09-03T10:11:49;20.20;99.90
3542;DHT22;1785;47.388;8.538;2022-09-03T10:14:22;20.20;99.90
3542;DHT22;1785;47.388;8.538;2022-09-03T10:16:55;20.30;99.90
3542;DHT22;1785;47.388;8.538;2022-09-03T10:19:29;20.30;99.90
3542;DHT22;1785;47.388;8.538;2022-09-03T10:22:03;20.20;99.90
3542;DHT22;1785;47.388;8.538;2022-09-03T10:24:40;19.90;99.90
3542;DHT22;1785;47.388;8.538;2022-09-03T10:27:15;20.00;99.90
3542;DHT22;1785;47.388;8.538;2022-09-03T10:29:43;20.00;99.90
3542;DHT22;1785;47.388;8.538;2022-09-03T10:35:07;20.00;99.90
3542;DHT22;1785;47.388;8.538;2022-09-03T10:37:40;20.40;99.90
3542;DHT22;1785;47.388;8.538;2022-09-03T10:40:25;20.80;99.90
3542;DHT22;1785;47.388;8.538;2022-09-03T10:45:52;20.60;99.90
3542;DHT22;1785;47.388;8.538;2022-09-03T10:48:43;20.10;99.90
3542;DHT22;1785;47.388;8.538;2022-09-03T10:51:16;20.00;99.90
3542;DHT22;1785;47.388;8.538;2022-09-03T10:54:01;19.60;99.90
3542;DHT22;1785;47.388;8.538;2022-09-03T10:56:35;19.80;99.90
3542;DHT22;1785;47.388;8.538;2022-09-03T10:59:24;19.90;99.90
3542;DHT22;1785;47.388;8.538;2022-09-03T11:02:00;20.20;99.90
3542;DHT22;1785;47.388;8.538;2022-09-03T11:04:41;20.00;99.90
3542;DHT22;1785;47.388;8.538;2022-09-03T11:07:12;20.00;99.90
3542;DHT22;1785;47.388;8.538;2022-09-03T11:09:44;19.90;99.90
3542;DHT22;1785;47.388;8.538;2022-09-03T11:12:19;19.80;99.90
3542;DHT22;1785;47.388;8.538;2022-09-03T11:14:53;19.70;99.90
3542;DHT22;1785;47.388;8.538;2022-09-03T11:17:24;19.70;99.90
3542;DHT22;1785;47.388;8.538;2022-09-03T11:19:56;19.60;99.90
3542;DHT22;1785;47.388;8.538;2022-09-03T11:22:25;19.40;99.90
3542;DHT22;1785;47.388;8.538;2022-09-03T11:24:57;19.40;99.90
3542;DHT22;1785;47.388;8.538;2022-09-03T11:27:49;19.40;99.90
3542;DHT22;1785;47.388;8.538;2022-09-03T11:30:23;19.70;99.90
3542;DHT22;1785;47.388;8.538;2022-09-03T11:32:52;19.90;99.90
3542;DHT22;1785;47.388;8.538;2022-09-03T11:35:26;19.90;99.90
3542;DHT22;1785;47.388;8.538;2022-09-03T11:37:57;20.10;99.90
3542;DHT22;1785;47.388;8.538;2022-09-03T11:40:31;20.30;99.90
3542;DHT22;1785;47.388;8.538;2022-09-03T11:43:12;20.70;99.90
3542;DHT22;1785;47.388;8.538;2022-09-03T11:45:39;20.50;99.90
3542;DHT22;1785;47.388;8.538;2022-09-03T11:48:32;20.40;99.90
3542;DHT22;1785;47.388;8.538;2022-09-03T11:51:01;20.70;99.90
3542;DHT22;1785;47.388;8.538;2022-09-03T11:53:33;20.30;99.90
3542;DHT22;1785;47.388;8.538;2022-09-03T11:56:11;20.20;99.90
3542;DHT22;1785;47.388;8.538;2022-09-03T11:58:43;20.20;99.90
3542;DHT22;1785;47.388;8.538;2022-09-03T12:01:12;20.20;99.90
3542;DHT22;1785;47.388;8.538;2022-09-03T12:03:43;20.30;99.90
3542;DHT22;1785;47.388;8.538;2022-09-03T12:06:36;20.40;99.90
3542;DHT22;1785;47.388;8.538;2022-09-03T12:09:24;20.60;99.90
3542;DHT22;1785;47.388;8.538;2022-09-03T12:12:08;20.70;99.90
3542;DHT22;1785;47.388;8.538;2022-09-03T12:14:46;20.50;99.90
3542;DHT22;1785;47.388;8.538;2022-09-03T12:17:27;20.80;99.90
3542;DHT22;1785;47.388;8.538;2022-09-03T12:19:57;21.20;99.90
3542;DHT22;1785;47.388;8.538;2022-09-03T12:22:27;21.20;99.90
3542;DHT22;1785;47.388;8.538;2022-09-03T12:24:54;21.30;99.90
3542;DHT22;1785;47.388;8.538;2022-09-03T12:27:23;21.40;99.90
3542;DHT22;1785;47.388;8.538;2022-09-03T12:29:53;21.50;99.90
3542;DHT22;1785;47.388;8.538;2022-09-03T12:32:26;21.50;99.90
3542;DHT22;1785;47.388;8.538;2022-09-03T12:34:54;21.90;99.90
3542;DHT22;1785;47.388;8.538;2022-09-03T12:37:23;22.60;99.90
3542;DHT22;1785;47.388;8.538;2022-09-03T12:39:51;22.90;99.90
3542;DHT22;1785;47.388;8.538;2022-09-03T12:42:23;23.20;99.90
3542;DHT22;1785;47.388;8.538;2022-09-03T12:44:51;23.10;99.90
3542;DHT22;1785;47.388;8.538;2022-09-03T12:47:19;23.00;99.90
3542;DHT22;1785;47.388;8.538;2022-09-03T12:49:47;22.80;99.90
3542;DHT22;1785;47.388;8.538;2022-09-03T12:52:19;22.70;99.90
3542;DHT22;1785;47.388;8.538;2022-09-03T12:54:50;22.50;99.90
3542;DHT22;1785;47.388;8.538;2022-09-03T12:57:22;22.90;99.90
3542;DHT22;1785;47.388;8.538;2022-09-03T12:59:52;23.10;99.90
3542;DHT22;1785;47.388;8.538;2022-09-03T13:02:26;23.00;99.90
3542;DHT22;1785;47.388;8.538;2022-09-03T13:04:55;22.90;99.90
3542;DHT22;1785;47.388;8.538;2022-09-03T13:07:26;23.10;99.90
3542;DHT22;1785;47.388;8.538;2022-09-03T13:09:59;23.30;99.90
3542;DHT22;1785;47.388;8.538;2022-09-03T13:12:32;23.10;99.90
3542;DHT22;1785;47.388;8.538;2022-09-03T13:15:06;23.00;99.90
3542;DHT22;1785;47.388;8.538;2022-09-03T13:17:55;22.90;99.90
3542;DHT22;1785;47.388;8.538;2022-09-03T13:20:36;23.10;99.90
3542;DHT22;1785;47.388;8.538;2022-09-03T13:26:01;23.30;99.90
3542;DHT22;1785;47.388;8.538;2022-09-03T13:28:39;23.00;99.90
3542;DHT22;1785;47.388;8.538;2022-09-03T13:31:21;22.50;99.90
3542;DHT22;1785;47.388;8.538;2022-09-03T13:33:56;22.90;99.90
3542;DHT22;1785;47.388;8.538;2022-09-03T13:36:27;23.00;99.90
3542;DHT22;1785;47.388;8.538;2022-09-03T13:38:58;22.90;99.90
3542;DHT22;1785;47.388;8.538;2022-09-03T13:41:35;23.00;99.90
3542;DHT22;1785;47.388;8.538;2022-09-03T13:44:08;23.00;99.90
3542;DHT22;1785;47.388;8.538;2022-09-03T13:46:44;23.00;99.90
3542;DHT22;1785;47.388;8.538;2022-09-03T13:49:21;23.10;99.90
3542;DHT22;1785;47.388;8.538;2022-09-03T13:52:12;23.00;99.90
3542;DHT22;1785;47.388;8.538;2022-09-03T13:54:50;23.50;99.90
3542;DHT22;1785;47.388;8.538;2022-09-03T13:57:26;23.50;99.90
3542;DHT22;1785;47.388;8.538;2022-09-03T14:00:00;23.80;99.90
3542;DHT22;1785;47.388;8.538;2022-09-03T14:02:41;24.20;99.90
3542;DHT22;1785;47.388;8.538;2022-09-03T14:05:14;24.40;99.90
3542;DHT22;1785;47.388;8.538;2022-09-03T14:07:58;24.60;99.90
3542;DHT22;1785;47.388;8.538;2022-09-03T14:10:32;24.80;99.90
3542;DHT22;1785;47.388;8.538;2022-09-03T14:13:12;25.10;99.90
3542;DHT22;1785;47.388;8.538;2022-09-03T14:15:45;25.40;99.90
3542;DHT22;1785;47.388;8.538;2022-09-03T14:18:27;25.70;99.90
3542;DHT22;1785;47.388;8.538;2022-09-03T14:21:02;26.00;99.90
3542;DHT22;1785;47.388;8.538;2022-09-03T14:23:35;26.10;99.90
3542;DHT22;1785;47.388;8.538;2022-09-03T14:26:13;26.30;99.90
3542;DHT22;1785;47.388;8.538;2022-09-03T14:28:48;26.50;99.90
3542;DHT22;1785;47.388;8.538;2022-09-03T14:31:33;26.50;99.90
3542;DHT22;1785;47.388;8.538;2022-09-03T14:34:09;26.30;99.90
3542;DHT22;1785;47.388;8.538;2022-09-03T14:36:42;26.20;99.90
3542;DHT22;1785;47.388;8.538;2022-09-03T14:39:26;26.00;99.90
3542;DHT22;1785;47.388;8.538;2022-09-03T14:45:27;26.20;99.90
3542;DHT22;1785;47.388;8.538;2022-09-03T14:48:10;26.00;99.90
3542;DHT22;1785;47.388;8.538;2022-09-03T14:50:57;26.30;99.90
3542;DHT22;1785;47.388;8.538;2022-09-03T14:54:00;26.80;99.90
3542;DHT22;1785;47.388;8.538;2022-09-03T14:56:43;26.40;99.90
3542;DHT22;1785;47.388;8.538;2022-09-03T14:59:32;26.60;99.90
3542;DHT22;1785;47.388;8.538;2022-09-03T15:02:35;26.70;99.90
3542;DHT22;1785;47.388;8.538;2022-09-03T15:05:09;26.10;99.90
3542;DHT22;1785;47.388;8.538;2022-09-03T15:07:42;25.80;99.90
3542;DHT22;1785;47.388;8.538;2022-09-03T15:10:17;26.40;99.90
3542;DHT22;1785;47.388;8.538;2022-09-03T15:12:50;26.80;99.90
3542;DHT22;1785;47.388;8.538;2022-09-03T15:15:20;27.10;99.90
3542;DHT22;1785;47.388;8.538;2022-09-03T15:18:01;27.50;99.90
3542;DHT22;1785;47.388;8.538;2022-09-03T15:20:40;27.90;99.90
3542;DHT22;1785;47.388;8.538;2022-09-03T15:23:23;27.80;99.90
3542;DHT22;1785;47.388;8.538;2022-09-03T15:26:16;27.80;99.90
3542;DHT22;1785;47.388;8.538;2022-09-03T15:28:56;27.50;99.90
3542;DHT22;1785;47.388;8.538;2022-09-03T15:31:34;27.10;99.90
3542;DHT22;1785;47.388;8.538;2022-09-03T15:34:14;27.00;99.90
3542;DHT22;1785;47.388;8.538;2022-09-03T15:36:49;27.20;99.90
3542;DHT22;1785;47.388;8.538;2022-09-03T15:39:23;27.60;99.90
3542;DHT22;1785;47.388;8.538;2022-09-03T15:41:54;27.80;99.90
3542;DHT22;1785;47.388;8.538;2022-09-03T15:44:22;27.70;99.90
3542;DHT22;1785;47.388;8.538;2022-09-03T15:46:55;27.80;99.90
3542;DHT22;1785;47.388;8.538;2022-09-03T15:49:33;27.70;99.90
3542;DHT22;1785;47.388;8.538;2022-09-03T15:52:29;27.50;99.90
3542;DHT22;1785;47.388;8.538;2022-09-03T15:55:06;27.20;99.90
3542;DHT22;1785;47.388;8.538;2022-09-03T15:57:39;26.90;99.90
3542;DHT22;1785;47.388;8.538;2022-09-03T16:00:10;26.50;99.90
3542;DHT22;1785;47.388;8.538;2022-09-03T16:02:41;26.20;99.90
3542;DHT22;1785;47.388;8.538;2022-09-03T16:05:14;26.10;99.90
3542;DHT22;1785;47.388;8.538;2022-09-03T16:07:57;26.00;99.90
3542;DHT22;1785;47.388;8.538;2022-09-03T16:10:45;25.80;99.90
3542;DHT22;1785;47.388;8.538;2022-09-03T16:13:31;25.70;99.90
3542;DHT22;1785;47.388;8.538;2022-09-03T16:16:02;25.60;99.90
3542;DHT22;1785;47.388;8.538;2022-09-03T16:18:32;25.20;99.90
3542;DHT22;1785;47.388;8.538;2022-09-03T16:21:06;25.10;99.90
3542;DHT22;1785;47.388;8.538;2022-09-03T16:23:40;24.90;99.90
3542;DHT22;1785;47.388;8.538;2022-09-03T16:26:13;25.00;99.90
3542;DHT22;1785;47.388;8.538;2022-09-03T16:28:46;24.90;99.90
3542;DHT22;1785;47.388;8.538;2022-09-03T16:31:22;24.70;99.90
3542;DHT22;1785;47.388;8.538;2022-09-03T16:33:59;24.80;99.90
3542;DHT22;1785;47.388;8.538;2022-09-03T16:36:36;24.70;99.90
3542;DHT22;1785;47.388;8.538;2022-09-03T16:39:15;24.80;99.90
3542;DHT22;1785;47.388;8.538;2022-09-03T16:41:54;24.70;99.90
3542;DHT22;1785;47.388;8.538;2022-09-03T16:44:30;24.70;99.90
3542;DHT22;1785;47.388;8.538;2022-09-03T16:47:10;24.60;99.90
3542;DHT22;1785;47.388;8.538;2022-09-03T16:49:51;24.60;99.90
3542;DHT22;1785;47.388;8.538;2022-09-03T16:52:27;24.60;99.90